Terminal Aerodrome Forecast
Issued by NWS

Home | Current Version | Previous Version | Text Only | Print | Product List | Glossary On
Versions: 1 2 3 4 5 6 7 8 9 10 11 12 13
372
FTUS45 KRIW 141720
TAFBPI
TAF
KBPI 141720Z 1418/1518 VRB05KT P6SM VCSH SCT030 OVC050
     FM141900 30012G18KT P6SM VCSH SCT020 OVC035
     FM150200 33008KT P6SM VCSH SCT030 BKN045
     FM150900 34008KT 4SM -SN BR SCT012 OVC025=

USA.gov is the U.S. government's official web portal to all federal, state and local government web resources and services.